sim
Sign-in with your pilot id or email,
or register
Callsign
Passwort

Schedule Details

Flight Number: EWG4106
Departure: Nuremberg Airport (EDDN) at 09:50
Arrival: Fuerteventura Airport (GCFV) at 14:40
Route: Eurowings Passenger Schedule. Enter filed route here before submitting Pirep.

Weather Information
Getting current METAR information for EDDN 211520Z 27008KT CAVOK 10/03 Q1027 NOSIG
Getting current METAR information for GCFV 211530Z 07005KT 020V110 CAVOK 20/14 Q1020

Schedule Frequency

Route Map